Wtr Mill, New York
Current Conditions -  °F | °C
As of 12:53 PM on Thursday 29 Jan 2015 (Local Time) from KFOK Reporting Station
Clear Clear  
Wind Chill: 26°   Ceiling: Unl
Heat Index: 31°   Visibility: 10mi
Dew Point: 17°   Wind: 5mph
Humidity: 57%   Direction: 220°SW
Pressure: 30.26"   Gusts: NA
Location:  40.9217°N, 72.3434°W
Report Text: KFOK 291753Z AUTO 22004KT 10SM CLR M01/M08 A3026 RMK AO2 SLP246 T10061083 10000 21211 58026 TSNO
Loading
Personal Weather Stations






























Interactive Weather Map New forecast layout! Learn more

10-Day Weather Forecast

Advertisements
Track Severe Weather on mobile